sensor_id;sensor_type;location;lat;lon;timestamp;P1;durP1;ratioP1;P2;durP2;ratioP2
19653;SDS011;9975;48.046;7.804;2022-12-18T01:57:14;27.20;;;10.15;;
19653;SDS011;9975;48.046;7.804;2022-12-18T01:59:40;27.40;;;7.90;;
19653;SDS011;9975;48.046;7.804;2022-12-18T02:02:10;22.33;;;8.75;;
19653;SDS011;9975;48.046;7.804;2022-12-18T02:04:36;22.27;;;9.70;;
19653;SDS011;9975;48.046;7.804;2022-12-18T02:13:08;21.00;;;7.97;;
19653;SDS011;9975;48.046;7.804;2022-12-18T02:18:30;28.25;;;9.68;;
19653;SDS011;9975;48.046;7.804;2022-12-18T02:21:15;34.33;;;8.30;;
19653;SDS011;9975;48.046;7.804;2022-12-18T02:26:58;20.75;;;8.23;;
19653;SDS011;9975;48.046;7.804;2022-12-18T02:32:21;20.50;;;8.32;;
19653;SDS011;9975;48.046;7.804;2022-12-18T02:34:52;32.05;;;10.70;;
19653;SDS011;9975;48.046;7.804;2022-12-18T02:37:20;20.58;;;10.30;;
19653;SDS011;9975;48.046;7.804;2022-12-18T02:39:48;27.77;;;10.75;;
19653;SDS011;9975;48.046;7.804;2022-12-18T02:42:16;30.60;;;9.48;;
19653;SDS011;9975;48.046;7.804;2022-12-18T02:44:47;25.27;;;9.52;;
19653;SDS011;9975;48.046;7.804;2022-12-18T02:47:15;39.90;;;10.52;;
19653;SDS011;9975;48.046;7.804;2022-12-18T03:01:02;19.73;;;8.35;;
19653;SDS011;9975;48.046;7.804;2022-12-18T03:03:39;22.75;;;9.30;;
19653;SDS011;9975;48.046;7.804;2022-12-18T03:06:12;20.02;;;9.50;;
19653;SDS011;9975;48.046;7.804;2022-12-18T03:08:54;26.90;;;9.93;;
19653;SDS011;9975;48.046;7.804;2022-12-18T03:11:23;30.90;;;11.50;;
19653;SDS011;9975;48.046;7.804;2022-12-18T03:14:19;40.45;;;9.90;;
19653;SDS011;9975;48.046;7.804;2022-12-18T03:16:49;22.35;;;8.82;;
19653;SDS011;9975;48.046;7.804;2022-12-18T03:19:18;25.42;;;9.40;;
19653;SDS011;9975;48.046;7.804;2022-12-18T03:21:47;23.25;;;10.00;;
19653;SDS011;9975;48.046;7.804;2022-12-18T03:24:17;14.57;;;8.15;;
19653;SDS011;9975;48.046;7.804;2022-12-18T03:26:44;28.65;;;7.68;;
19653;SDS011;9975;48.046;7.804;2022-12-18T03:29:18;18.35;;;7.63;;
19653;SDS011;9975;48.046;7.804;2022-12-18T03:31:58;32.85;;;9.18;;
19653;SDS011;9975;48.046;7.804;2022-12-18T03:34:31;24.75;;;8.95;;
19653;SDS011;9975;48.046;7.804;2022-12-18T03:37:00;19.55;;;7.78;;
19653;SDS011;9975;48.046;7.804;2022-12-18T03:39:26;22.83;;;8.70;;
19653;SDS011;9975;48.046;7.804;2022-12-18T03:44:29;30.35;;;9.35;;
19653;SDS011;9975;48.046;7.804;2022-12-18T03:55:17;35.10;;;10.32;;
19653;SDS011;9975;48.046;7.804;2022-12-18T03:57:45;21.20;;;8.15;;
19653;SDS011;9975;48.046;7.804;2022-12-18T04:00:14;20.55;;;9.80;;
19653;SDS011;9975;48.046;7.804;2022-12-18T04:02:45;34.10;;;9.32;;
19653;SDS011;9975;48.046;7.804;2022-12-18T04:05:17;19.80;;;8.88;;
19653;SDS011;9975;48.046;7.804;2022-12-18T04:07:48;26.25;;;9.20;;
19653;SDS011;9975;48.046;7.804;2022-12-18T04:10:15;24.08;;;9.48;;
19653;SDS011;9975;48.046;7.804;2022-12-18T04:12:41;27.98;;;10.75;;
19653;SDS011;9975;48.046;7.804;2022-12-18T04:15:07;29.07;;;7.17;;
19653;SDS011;9975;48.046;7.804;2022-12-18T04:17:34;17.25;;;7.45;;
19653;SDS011;9975;48.046;7.804;2022-12-18T04:20:00;27.00;;;8.37;;
19653;SDS011;9975;48.046;7.804;2022-12-18T04:22:26;14.93;;;7.30;;
19653;SDS011;9975;48.046;7.804;2022-12-18T04:24:51;18.53;;;8.13;;
19653;SDS011;9975;48.046;7.804;2022-12-18T04:27:17;24.70;;;7.40;;
19653;SDS011;9975;48.046;7.804;2022-12-18T04:29:43;17.90;;;7.57;;
19653;SDS011;9975;48.046;7.804;2022-12-18T04:32:08;19.47;;;6.57;;
19653;SDS011;9975;48.046;7.804;2022-12-18T04:34:34;23.13;;;9.60;;
19653;SDS011;9975;48.046;7.804;2022-12-18T04:37:00;25.00;;;9.70;;
19653;SDS011;9975;48.046;7.804;2022-12-18T04:39:25;15.77;;;9.40;;
19653;SDS011;9975;48.046;7.804;2022-12-18T04:41:51;19.77;;;8.37;;
19653;SDS011;9975;48.046;7.804;2022-12-18T04:44:17;19.93;;;7.20;;
19653;SDS011;9975;48.046;7.804;2022-12-18T04:46:42;11.23;;;5.43;;
19653;SDS011;9975;48.046;7.804;2022-12-18T04:49:08;26.05;;;9.73;;
19653;SDS011;9975;48.046;7.804;2022-12-18T04:51:35;20.50;;;9.25;;
19653;SDS011;9975;48.046;7.804;2022-12-18T04:54:02;16.73;;;7.30;;
19653;SDS011;9975;48.046;7.804;2022-12-18T04:56:28;27.90;;;10.95;;
19653;SDS011;9975;48.046;7.804;2022-12-18T04:58:55;31.83;;;8.35;;
19653;SDS011;9975;48.046;7.804;2022-12-18T05:01:21;18.57;;;6.57;;
19653;SDS011;9975;48.046;7.804;2022-12-18T05:03:46;24.50;;;8.83;;
19653;SDS011;9975;48.046;7.804;2022-12-18T05:06:12;24.50;;;8.37;;
19653;SDS011;9975;48.046;7.804;2022-12-18T05:08:38;15.50;;;7.28;;
19653;SDS011;9975;48.046;7.804;2022-12-18T05:11:08;33.22;;;9.80;;
19653;SDS011;9975;48.046;7.804;2022-12-18T05:13:36;12.95;;;6.45;;
19653;SDS011;9975;48.046;7.804;2022-12-18T05:16:02;26.35;;;10.00;;
19653;SDS011;9975;48.046;7.804;2022-12-18T05:18:29;14.32;;;7.82;;
19653;SDS011;9975;48.046;7.804;2022-12-18T05:20:54;22.40;;;7.93;;
19653;SDS011;9975;48.046;7.804;2022-12-18T05:23:21;19.00;;;5.73;;
19653;SDS011;9975;48.046;7.804;2022-12-18T05:25:54;15.30;;;8.93;;
19653;SDS011;9975;48.046;7.804;2022-12-18T05:28:23;14.13;;;6.15;;
19653;SDS011;9975;48.046;7.804;2022-12-18T05:30:54;24.42;;;8.05;;
19653;SDS011;9975;48.046;7.804;2022-12-18T05:33:21;22.10;;;7.85;;
19653;SDS011;9975;48.046;7.804;2022-12-18T05:35:55;7.85;;;4.80;;
19653;SDS011;9975;48.046;7.804;2022-12-18T05:38:23;17.50;;;7.55;;
19653;SDS011;9975;48.046;7.804;2022-12-18T05:40:50;26.05;;;9.13;;
19653;SDS011;9975;48.046;7.804;2022-12-18T05:43:17;16.42;;;8.32;;
19653;SDS011;9975;48.046;7.804;2022-12-18T05:45:44;12.23;;;4.45;;
19653;SDS011;9975;48.046;7.804;2022-12-18T05:48:10;17.47;;;7.53;;
19653;SDS011;9975;48.046;7.804;2022-12-18T05:50:36;14.20;;;5.00;;
19653;SDS011;9975;48.046;7.804;2022-12-18T05:53:03;17.40;;;7.90;;
19653;SDS011;9975;48.046;7.804;2022-12-18T05:55:32;22.00;;;8.85;;
19653;SDS011;9975;48.046;7.804;2022-12-18T05:57:59;20.25;;;8.43;;
19653;SDS011;9975;48.046;7.804;2022-12-18T06:00:25;14.47;;;8.40;;
19653;SDS011;9975;48.046;7.804;2022-12-18T06:02:51;16.70;;;8.53;;
19653;SDS011;9975;48.046;7.804;2022-12-18T06:05:16;15.10;;;6.90;;
19653;SDS011;9975;48.046;7.804;2022-12-18T06:07:42;11.20;;;5.50;;
19653;SDS011;9975;48.046;7.804;2022-12-18T06:10:07;15.67;;;7.77;;
19653;SDS011;9975;48.046;7.804;2022-12-18T06:12:33;14.50;;;7.53;;
19653;SDS011;9975;48.046;7.804;2022-12-18T06:14:59;19.13;;;7.10;;
19653;SDS011;9975;48.046;7.804;2022-12-18T06:17:29;27.05;;;6.97;;
19653;SDS011;9975;48.046;7.804;2022-12-18T06:19:56;17.05;;;5.00;;
19653;SDS011;9975;48.046;7.804;2022-12-18T06:22:22;24.57;;;8.90;;
19653;SDS011;9975;48.046;7.804;2022-12-18T06:24:48;18.17;;;7.60;;
19653;SDS011;9975;48.046;7.804;2022-12-18T06:27:13;16.00;;;8.43;;
19653;SDS011;9975;48.046;7.804;2022-12-18T06:29:39;18.13;;;7.23;;
19653;SDS011;9975;48.046;7.804;2022-12-18T06:32:05;17.73;;;8.10;;
19653;SDS011;9975;48.046;7.804;2022-12-18T06:34:31;21.47;;;8.67;;
19653;SDS011;9975;48.046;7.804;2022-12-18T06:36:57;18.08;;;7.78;;
19653;SDS011;9975;48.046;7.804;2022-12-18T06:39:23;31.30;;;9.27;;
19653;SDS011;9975;48.046;7.804;2022-12-18T06:41:49;13.63;;;7.13;;
19653;SDS011;9975;48.046;7.804;2022-12-18T06:44:14;21.83;;;5.53;;
19653;SDS011;9975;48.046;7.804;2022-12-18T06:46:40;11.97;;;6.03;;
19653;SDS011;9975;48.046;7.804;2022-12-18T06:49:06;18.10;;;8.40;;
19653;SDS011;9975;48.046;7.804;2022-12-18T06:51:34;9.95;;;5.22;;
19653;SDS011;9975;48.046;7.804;2022-12-18T06:54:00;14.18;;;6.05;;
19653;SDS011;9975;48.046;7.804;2022-12-18T06:56:26;18.65;;;6.78;;
19653;SDS011;9975;48.046;7.804;2022-12-18T06:58:52;10.67;;;6.00;;
19653;SDS011;9975;48.046;7.804;2022-12-18T07:01:17;16.63;;;7.90;;
19653;SDS011;9975;48.046;7.804;2022-12-18T07:03:43;10.03;;;6.77;;
19653;SDS011;9975;48.046;7.804;2022-12-18T07:06:16;16.42;;;5.95;;
19653;SDS011;9975;48.046;7.804;2022-12-18T07:08:44;13.35;;;6.65;;
19653;SDS011;9975;48.046;7.804;2022-12-18T07:11:10;19.27;;;7.47;;
19653;SDS011;9975;48.046;7.804;2022-12-18T07:13:36;13.55;;;5.00;;
19653;SDS011;9975;48.046;7.804;2022-12-18T07:16:07;21.97;;;7.87;;
19653;SDS011;9975;48.046;7.804;2022-12-18T07:18:35;16.65;;;6.47;;
19653;SDS011;9975;48.046;7.804;2022-12-18T07:21:05;14.93;;;6.55;;
19653;SDS011;9975;48.046;7.804;2022-12-18T07:23:32;9.00;;;4.35;;
19653;SDS011;9975;48.046;7.804;2022-12-18T07:26:05;11.98;;;6.82;;
19653;SDS011;9975;48.046;7.804;2022-12-18T07:28:34;16.55;;;5.72;;
19653;SDS011;9975;48.046;7.804;2022-12-18T07:31:04;19.83;;;8.15;;
19653;SDS011;9975;48.046;7.804;2022-12-18T07:33:31;10.77;;;4.90;;
19653;SDS011;9975;48.046;7.804;2022-12-18T07:36:01;12.77;;;5.90;;
19653;SDS011;9975;48.046;7.804;2022-12-18T07:38:28;15.82;;;6.68;;
19653;SDS011;9975;48.046;7.804;2022-12-18T07:40:54;14.80;;;6.97;;
19653;SDS011;9975;48.046;7.804;2022-12-18T07:43:20;18.20;;;7.25;;
19653;SDS011;9975;48.046;7.804;2022-12-18T07:45:48;22.17;;;7.20;;
19653;SDS011;9975;48.046;7.804;2022-12-18T07:48:14;12.27;;;6.30;;
19653;SDS011;9975;48.046;7.804;2022-12-18T07:50:50;21.85;;;8.60;;
19653;SDS011;9975;48.046;7.804;2022-12-18T07:53:16;9.05;;;6.15;;
19653;SDS011;9975;48.046;7.804;2022-12-18T07:55:41;11.80;;;6.00;;
19653;SDS011;9975;48.046;7.804;2022-12-18T07:58:07;29.50;;;10.80;;
19653;SDS011;9975;48.046;7.804;2022-12-18T08:00:33;15.90;;;8.50;;
19653;SDS011;9975;48.046;7.804;2022-12-18T08:02:59;12.07;;;6.30;;
19653;SDS011;9975;48.046;7.804;2022-12-18T08:05:25;6.73;;;4.80;;
19653;SDS011;9975;48.046;7.804;2022-12-18T08:07:51;13.53;;;6.67;;
19653;SDS011;9975;48.046;7.804;2022-12-18T08:10:17;12.40;;;4.43;;
19653;SDS011;9975;48.046;7.804;2022-12-18T08:12:43;25.67;;;6.63;;
19653;SDS011;9975;48.046;7.804;2022-12-18T08:15:08;15.27;;;6.17;;
19653;SDS011;9975;48.046;7.804;2022-12-18T08:17:34;14.63;;;7.05;;
19653;SDS011;9975;48.046;7.804;2022-12-18T08:20:00;13.77;;;5.47;;
19653;SDS011;9975;48.046;7.804;2022-12-18T08:22:26;19.15;;;7.10;;
19653;SDS011;9975;48.046;7.804;2022-12-18T08:24:52;19.63;;;6.40;;
19653;SDS011;9975;48.046;7.804;2022-12-18T08:27:17;12.33;;;7.40;;
19653;SDS011;9975;48.046;7.804;2022-12-18T08:29:43;12.87;;;6.50;;
19653;SDS011;9975;48.046;7.804;2022-12-18T08:32:08;15.70;;;6.27;;
19653;SDS011;9975;48.046;7.804;2022-12-18T08:34:34;9.80;;;5.37;;
19653;SDS011;9975;48.046;7.804;2022-12-18T08:37:00;55.00;;;25.80;;
19653;SDS011;9975;48.046;7.804;2022-12-18T08:39:26;14.87;;;7.97;;
19653;SDS011;9975;48.046;7.804;2022-12-18T08:41:52;18.00;;;10.75;;
19653;SDS011;9975;48.046;7.804;2022-12-18T08:44:36;34.45;;;14.18;;
19653;SDS011;9975;48.046;7.804;2022-12-18T08:47:05;25.55;;;12.25;;
19653;SDS011;9975;48.046;7.804;2022-12-18T08:49:31;22.98;;;11.93;;
19653;SDS011;9975;48.046;7.804;2022-12-18T08:51:57;16.33;;;6.65;;
19653;SDS011;9975;48.046;7.804;2022-12-18T08:54:23;10.97;;;6.83;;
19653;SDS011;9975;48.046;7.804;2022-12-18T08:56:49;17.60;;;8.23;;
19653;SDS011;9975;48.046;7.804;2022-12-18T08:59:18;30.10;;;9.77;;
19653;SDS011;9975;48.046;7.804;2022-12-18T09:01:45;30.90;;;8.13;;
19653;SDS011;9975;48.046;7.804;2022-12-18T09:04:12;20.80;;;6.43;;
19653;SDS011;9975;48.046;7.804;2022-12-18T09:06:38;23.08;;;6.20;;
19653;SDS011;9975;48.046;7.804;2022-12-18T09:09:04;28.58;;;11.93;;
19653;SDS011;9975;48.046;7.804;2022-12-18T09:11:30;16.23;;;7.00;;
19653;SDS011;9975;48.046;7.804;2022-12-18T09:13:57;14.68;;;8.23;;
19653;SDS011;9975;48.046;7.804;2022-12-18T09:16:24;29.13;;;9.13;;
19653;SDS011;9975;48.046;7.804;2022-12-18T09:18:53;17.95;;;9.10;;
19653;SDS011;9975;48.046;7.804;2022-12-18T09:21:24;19.08;;;9.65;;
19653;SDS011;9975;48.046;7.804;2022-12-18T09:23:51;23.80;;;8.30;;
19653;SDS011;9975;48.046;7.804;2022-12-18T09:26:19;21.98;;;7.03;;
19653;SDS011;9975;48.046;7.804;2022-12-18T09:28:49;22.45;;;9.52;;
19653;SDS011;9975;48.046;7.804;2022-12-18T09:31:15;15.30;;;6.60;;
19653;SDS011;9975;48.046;7.804;2022-12-18T09:33:42;33.08;;;10.55;;
19653;SDS011;9975;48.046;7.804;2022-12-18T09:36:09;29.33;;;10.50;;
19653;SDS011;9975;48.046;7.804;2022-12-18T09:38:37;26.98;;;9.88;;
19653;SDS011;9975;48.046;7.804;2022-12-18T09:41:05;17.33;;;6.87;;
19653;SDS011;9975;48.046;7.804;2022-12-18T09:46:15;16.35;;;9.07;;
19653;SDS011;9975;48.046;7.804;2022-12-18T09:48:57;20.02;;;8.68;;
19653;SDS011;9975;48.046;7.804;2022-12-18T09:51:30;16.40;;;7.30;;
19653;SDS011;9975;48.046;7.804;2022-12-18T09:54:05;16.85;;;7.68;;
19653;SDS011;9975;48.046;7.804;2022-12-18T09:56:38;25.00;;;8.40;;
19653;SDS011;9975;48.046;7.804;2022-12-18T09:59:30;12.57;;;8.98;;
19653;SDS011;9975;48.046;7.804;2022-12-18T10:02:18;24.98;;;8.63;;
19653;SDS011;9975;48.046;7.804;2022-12-18T10:04:48;32.30;;;9.77;;
19653;SDS011;9975;48.046;7.804;2022-12-18T10:07:33;22.23;;;10.18;;
19653;SDS011;9975;48.046;7.804;2022-12-18T10:10:26;20.58;;;9.60;;
19653;SDS011;9975;48.046;7.804;2022-12-18T10:15:44;22.70;;;9.80;;
19653;SDS011;9975;48.046;7.804;2022-12-18T10:24:37;30.42;;;11.77;;
19653;SDS011;9975;48.046;7.804;2022-12-18T10:27:21;34.45;;;15.40;;
19653;SDS011;9975;48.046;7.804;2022-12-18T10:29:50;33.17;;;11.48;;
19653;SDS011;9975;48.046;7.804;2022-12-18T10:32:18;39.80;;;13.43;;
19653;SDS011;9975;48.046;7.804;2022-12-18T10:34:53;25.38;;;12.63;;
19653;SDS011;9975;48.046;7.804;2022-12-18T10:37:21;21.98;;;9.75;;
19653;SDS011;9975;48.046;7.804;2022-12-18T10:40:10;27.60;;;12.05;;
19653;SDS011;9975;48.046;7.804;2022-12-18T10:42:39;30.20;;;11.35;;
19653;SDS011;9975;48.046;7.804;2022-12-18T10:45:16;26.58;;;13.27;;
19653;SDS011;9975;48.046;7.804;2022-12-18T10:47:45;24.20;;;12.35;;
19653;SDS011;9975;48.046;7.804;2022-12-18T10:50:48;26.70;;;11.45;;
19653;SDS011;9975;48.046;7.804;2022-12-18T10:53:13;26.70;;;13.27;;
19653;SDS011;9975;48.046;7.804;2022-12-18T10:55:44;22.77;;;10.82;;
19653;SDS011;9975;48.046;7.804;2022-12-18T10:58:24;27.83;;;11.77;;
19653;SDS011;9975;48.046;7.804;2022-12-18T11:03:32;23.80;;;11.35;;
19653;SDS011;9975;48.046;7.804;2022-12-18T11:06:07;29.92;;;13.63;;
19653;SDS011;9975;48.046;7.804;2022-12-18T11:08:40;24.25;;;10.45;;
19653;SDS011;9975;48.046;7.804;2022-12-18T11:11:28;33.83;;;12.90;;
19653;SDS011;9975;48.046;7.804;2022-12-18T11:14:04;23.27;;;11.75;;
19653;SDS011;9975;48.046;7.804;2022-12-18T11:16:36;53.85;;;26.50;;
19653;SDS011;9975;48.046;7.804;2022-12-18T11:19:10;30.90;;;14.40;;
19653;SDS011;9975;48.046;7.804;2022-12-18T11:21:46;20.65;;;11.98;;
19653;SDS011;9975;48.046;7.804;2022-12-18T11:24:31;26.33;;;13.30;;
19653;SDS011;9975;48.046;7.804;2022-12-18T11:27:03;31.55;;;12.70;;
19653;SDS011;9975;48.046;7.804;2022-12-18T11:29:37;24.45;;;12.30;;
19653;SDS011;9975;48.046;7.804;2022-12-18T11:35:10;52.15;;;21.02;;
19653;SDS011;9975;48.046;7.804;2022-12-18T11:37:46;35.35;;;16.70;;
19653;SDS011;9975;48.046;7.804;2022-12-18T11:40:19;33.15;;;15.20;;
19653;SDS011;9975;48.046;7.804;2022-12-18T11:43:04;38.17;;;15.65;;
19653;SDS011;9975;48.046;7.804;2022-12-18T11:45:41;29.35;;;12.05;;
19653;SDS011;9975;48.046;7.804;2022-12-18T11:48:18;32.85;;;13.43;;
19653;SDS011;9975;48.046;7.804;2022-12-18T11:50:53;33.38;;;12.93;;
19653;SDS011;9975;48.046;7.804;2022-12-18T11:53:21;29.05;;;12.05;;
19653;SDS011;9975;48.046;7.804;2022-12-18T11:55:51;25.50;;;13.80;;
19653;SDS011;9975;48.046;7.804;2022-12-18T11:58:53;24.20;;;9.88;;
19653;SDS011;9975;48.046;7.804;2022-12-18T12:01:38;26.05;;;11.45;;
19653;SDS011;9975;48.046;7.804;2022-12-18T12:10:07;24.25;;;13.35;;
19653;SDS011;9975;48.046;7.804;2022-12-18T12:21:02;25.25;;;10.13;;
19653;SDS011;9975;48.046;7.804;2022-12-18T12:23:38;26.48;;;12.15;;
19653;SDS011;9975;48.046;7.804;2022-12-18T12:26:35;23.13;;;11.20;;
19653;SDS011;9975;48.046;7.804;2022-12-18T12:29:15;19.42;;;11.27;;
19653;SDS011;9975;48.046;7.804;2022-12-18T12:39:59;40.35;;;13.40;;
19653;SDS011;9975;48.046;7.804;2022-12-18T12:42:29;26.30;;;11.60;;
19653;SDS011;9975;48.046;7.804;2022-12-18T12:48:04;27.27;;;10.43;;
19653;SDS011;9975;48.046;7.804;2022-12-18T12:50:35;25.95;;;12.75;;
19653;SDS011;9975;48.046;7.804;2022-12-18T12:53:01;22.05;;;11.27;;
19653;SDS011;9975;48.046;7.804;2022-12-18T12:55:32;32.53;;;12.15;;
19653;SDS011;9975;48.046;7.804;2022-12-18T13:00:40;24.77;;;13.00;;
19653;SDS011;9975;48.046;7.804;2022-12-18T13:06:17;31.10;;;13.52;;
19653;SDS011;9975;48.046;7.804;2022-12-18T13:08:53;24.35;;;12.77;;
19653;SDS011;9975;48.046;7.804;2022-12-18T13:14:37;24.90;;;13.07;;
19653;SDS011;9975;48.046;7.804;2022-12-18T13:17:14;24.38;;;10.07;;
19653;SDS011;9975;48.046;7.804;2022-12-18T13:19:40;24.80;;;12.25;;
19653;SDS011;9975;48.046;7.804;2022-12-18T13:22:19;25.50;;;11.80;;
19653;SDS011;9975;48.046;7.804;2022-12-18T13:24:53;29.67;;;12.70;;
19653;SDS011;9975;48.046;7.804;2022-12-18T13:30:52;20.27;;;11.48;;
19653;SDS011;9975;48.046;7.804;2022-12-18T13:38:25;22.63;;;10.68;;
19653;SDS011;9975;48.046;7.804;2022-12-18T13:41:03;18.60;;;9.75;;
19653;SDS011;9975;48.046;7.804;2022-12-18T13:43:56;23.20;;;12.13;;
19653;SDS011;9975;48.046;7.804;2022-12-18T13:51:44;20.52;;;11.00;;
19653;SDS011;9975;48.046;7.804;2022-12-18T13:56:48;25.05;;;12.50;;
19653;SDS011;9975;48.046;7.804;2022-12-18T13:59:18;23.42;;;12.63;;
19653;SDS011;9975;48.046;7.804;2022-12-18T14:04:28;30.38;;;12.55;;
19653;SDS011;9975;48.046;7.804;2022-12-18T14:06:56;28.13;;;13.68;;
19653;SDS011;9975;48.046;7.804;2022-12-18T14:09:30;24.05;;;13.20;;
19653;SDS011;9975;48.046;7.804;2022-12-18T14:12:00;23.23;;;12.65;;
19653;SDS011;9975;48.046;7.804;2022-12-18T14:14:59;21.73;;;11.75;;
19653;SDS011;9975;48.046;7.804;2022-12-18T14:17:25;29.63;;;13.48;;
19653;SDS011;9975;48.046;7.804;2022-12-18T14:19:51;22.83;;;11.90;;
19653;SDS011;9975;48.046;7.804;2022-12-18T14:22:21;19.57;;;12.80;;
19653;SDS011;9975;48.046;7.804;2022-12-18T14:27:53;25.00;;;11.40;;
19653;SDS011;9975;48.046;7.804;2022-12-18T14:33:10;26.35;;;12.52;;
19653;SDS011;9975;48.046;7.804;2022-12-18T14:35:58;29.10;;;13.05;;
19653;SDS011;9975;48.046;7.804;2022-12-18T14:38:31;21.25;;;11.13;;
19653;SDS011;9975;48.046;7.804;2022-12-18T14:44:05;25.65;;;13.80;;
19653;SDS011;9975;48.046;7.804;2022-12-18T14:49:00;25.75;;;12.82;;
19653;SDS011;9975;48.046;7.804;2022-12-18T14:51:29;24.70;;;12.82;;
19653;SDS011;9975;48.046;7.804;2022-12-18T14:59:06;29.45;;;14.43;;
19653;SDS011;9975;48.046;7.804;2022-12-18T15:01:56;23.10;;;12.23;;
19653;SDS011;9975;48.046;7.804;2022-12-18T15:07:04;30.02;;;13.60;;
19653;SDS011;9975;48.046;7.804;2022-12-18T15:09:30;34.35;;;15.35;;
19653;SDS011;9975;48.046;7.804;2022-12-18T15:12:00;28.77;;;16.60;;
19653;SDS011;9975;48.046;7.804;2022-12-18T15:16:55;37.63;;;15.70;;
19653;SDS011;9975;48.046;7.804;2022-12-18T15:19:21;30.08;;;14.10;;
19653;SDS011;9975;48.046;7.804;2022-12-18T15:21:56;29.42;;;13.18;;
19653;SDS011;9975;48.046;7.804;2022-12-18T15:24:23;34.27;;;15.70;;
19653;SDS011;9975;48.046;7.804;2022-12-18T15:26:52;29.75;;;14.05;;
19653;SDS011;9975;48.046;7.804;2022-12-18T15:29:19;26.10;;;14.20;;
19653;SDS011;9975;48.046;7.804;2022-12-18T15:31:57;43.83;;;20.80;;
19653;SDS011;9975;48.046;7.804;2022-12-18T15:34:25;32.58;;;15.45;;
19653;SDS011;9975;48.046;7.804;2022-12-18T15:36:51;34.08;;;14.25;;
19653;SDS011;9975;48.046;7.804;2022-12-18T15:39:17;32.67;;;15.03;;
19653;SDS011;9975;48.046;7.804;2022-12-18T15:41:43;21.10;;;12.10;;
19653;SDS011;9975;48.046;7.804;2022-12-18T15:44:29;26.67;;;13.20;;
19653;SDS011;9975;48.046;7.804;2022-12-18T15:46:55;27.45;;;13.93;;
19653;SDS011;9975;48.046;7.804;2022-12-18T15:49:21;25.23;;;15.53;;
19653;SDS011;9975;48.046;7.804;2022-12-18T15:51:51;25.48;;;12.23;;
19653;SDS011;9975;48.046;7.804;2022-12-18T15:54:19;24.63;;;12.50;;
19653;SDS011;9975;48.046;7.804;2022-12-18T15:57:04;24.77;;;12.98;;
19653;SDS011;9975;48.046;7.804;2022-12-18T15:59:48;24.48;;;11.80;;
19653;SDS011;9975;48.046;7.804;2022-12-18T16:02:15;34.08;;;18.38;;
19653;SDS011;9975;48.046;7.804;2022-12-18T16:04:42;30.52;;;14.75;;
19653;SDS011;9975;48.046;7.804;2022-12-18T16:07:08;33.90;;;15.37;;
19653;SDS011;9975;48.046;7.804;2022-12-18T16:09:34;37.17;;;15.80;;
19653;SDS011;9975;48.046;7.804;2022-12-18T16:12:00;28.02;;;15.50;;
19653;SDS011;9975;48.046;7.804;2022-12-18T16:14:26;32.20;;;15.43;;
19653;SDS011;9975;48.046;7.804;2022-12-18T16:16:55;39.88;;;16.08;;
19653;SDS011;9975;48.046;7.804;2022-12-18T16:19:25;34.60;;;17.65;;
19653;SDS011;9975;48.046;7.804;2022-12-18T16:21:52;35.25;;;15.70;;
19653;SDS011;9975;48.046;7.804;2022-12-18T16:24:21;39.83;;;14.50;;
19653;SDS011;9975;48.046;7.804;2022-12-18T16:26:49;33.53;;;16.42;;
19653;SDS011;9975;48.046;7.804;2022-12-18T16:29:19;31.95;;;17.15;;
19653;SDS011;9975;48.046;7.804;2022-12-18T16:31:49;40.40;;;18.67;;
19653;SDS011;9975;48.046;7.804;2022-12-18T16:36:47;35.60;;;17.95;;
19653;SDS011;9975;48.046;7.804;2022-12-18T16:39:13;44.35;;;24.10;;
19653;SDS011;9975;48.046;7.804;2022-12-18T16:41:39;36.40;;;18.40;;
19653;SDS011;9975;48.046;7.804;2022-12-18T16:44:04;28.40;;;16.40;;
19653;SDS011;9975;48.046;7.804;2022-12-18T16:46:30;41.97;;;18.17;;
19653;SDS011;9975;48.046;7.804;2022-12-18T16:48:59;41.93;;;19.20;;
19653;SDS011;9975;48.046;7.804;2022-12-18T16:51:28;39.03;;;18.23;;
19653;SDS011;9975;48.046;7.804;2022-12-18T16:53:54;44.50;;;18.63;;
19653;SDS011;9975;48.046;7.804;2022-12-18T16:56:20;40.05;;;16.85;;
19653;SDS011;9975;48.046;7.804;2022-12-18T16:58:52;29.50;;;16.50;;
19653;SDS011;9975;48.046;7.804;2022-12-18T17:01:20;31.85;;;15.07;;
19653;SDS011;9975;48.046;7.804;2022-12-18T17:06:22;38.35;;;18.15;;
19653;SDS011;9975;48.046;7.804;2022-12-18T17:08:53;31.10;;;14.77;;
19653;SDS011;9975;48.046;7.804;2022-12-18T17:11:30;37.05;;;15.25;;
19653;SDS011;9975;48.046;7.804;2022-12-18T17:13:56;37.78;;;18.60;;
19653;SDS011;9975;48.046;7.804;2022-12-18T17:16:22;43.77;;;18.07;;
19653;SDS011;9975;48.046;7.804;2022-12-18T17:18:49;38.72;;;18.38;;
19653;SDS011;9975;48.046;7.804;2022-12-18T17:21:15;42.22;;;19.42;;
19653;SDS011;9975;48.046;7.804;2022-12-18T17:23:42;36.95;;;16.92;;
19653;SDS011;9975;48.046;7.804;2022-12-18T17:26:08;51.95;;;24.02;;
19653;SDS011;9975;48.046;7.804;2022-12-18T17:28:35;48.50;;;21.95;;
19653;SDS011;9975;48.046;7.804;2022-12-18T17:31:09;54.25;;;24.30;;
19653;SDS011;9975;48.046;7.804;2022-12-18T17:33:35;43.97;;;20.27;;
19653;SDS011;9975;48.046;7.804;2022-12-18T17:36:01;43.60;;;20.27;;
19653;SDS011;9975;48.046;7.804;2022-12-18T17:38:27;44.83;;;19.37;;
19653;SDS011;9975;48.046;7.804;2022-12-18T17:40:52;38.33;;;18.50;;
19653;SDS011;9975;48.046;7.804;2022-12-18T17:43:18;39.70;;;16.60;;
19653;SDS011;9975;48.046;7.804;2022-12-18T17:45:44;30.23;;;16.43;;
19653;SDS011;9975;48.046;7.804;2022-12-18T17:48:10;42.50;;;18.90;;
19653;SDS011;9975;48.046;7.804;2022-12-18T17:50:35;39.97;;;17.40;;
19653;SDS011;9975;48.046;7.804;2022-12-18T17:53:01;37.25;;;16.13;;
19653;SDS011;9975;48.046;7.804;2022-12-18T17:55:27;49.60;;;19.20;;
19653;SDS011;9975;48.046;7.804;2022-12-18T17:57:53;46.67;;;20.40;;
19653;SDS011;9975;48.046;7.804;2022-12-18T18:00:19;41.67;;;18.63;;
19653;SDS011;9975;48.046;7.804;2022-12-18T18:02:45;43.20;;;18.70;;
19653;SDS011;9975;48.046;7.804;2022-12-18T18:05:11;48.03;;;20.60;;
19653;SDS011;9975;48.046;7.804;2022-12-18T18:07:37;39.22;;;17.30;;
19653;SDS011;9975;48.046;7.804;2022-12-18T18:10:03;37.63;;;17.48;;
19653;SDS011;9975;48.046;7.804;2022-12-18T18:12:29;37.15;;;17.10;;
19653;SDS011;9975;48.046;7.804;2022-12-18T18:15:14;42.78;;;18.85;;
19653;SDS011;9975;48.046;7.804;2022-12-18T18:17:40;36.78;;;18.48;;
19653;SDS011;9975;48.046;7.804;2022-12-18T18:20:05;44.23;;;20.97;;
19653;SDS011;9975;48.046;7.804;2022-12-18T18:22:32;34.75;;;18.63;;
19653;SDS011;9975;48.046;7.804;2022-12-18T18:24:58;43.08;;;18.10;;
19653;SDS011;9975;48.046;7.804;2022-12-18T18:27:24;38.03;;;18.88;;
19653;SDS011;9975;48.046;7.804;2022-12-18T18:29:50;45.55;;;19.65;;
19653;SDS011;9975;48.046;7.804;2022-12-18T18:32:16;51.20;;;18.90;;
19653;SDS011;9975;48.046;7.804;2022-12-18T18:34:42;48.30;;;21.98;;
19653;SDS011;9975;48.046;7.804;2022-12-18T18:37:08;44.87;;;18.60;;
19653;SDS011;9975;48.046;7.804;2022-12-18T18:39:34;43.40;;;17.90;;
19653;SDS011;9975;48.046;7.804;2022-12-18T18:42:00;44.05;;;20.13;;
19653;SDS011;9975;48.046;7.804;2022-12-18T18:44:26;40.88;;;18.75;;
19653;SDS011;9975;48.046;7.804;2022-12-18T18:46:54;40.67;;;21.33;;
19653;SDS011;9975;48.046;7.804;2022-12-18T18:49:20;37.97;;;17.02;;
19653;SDS011;9975;48.046;7.804;2022-12-18T18:51:49;47.78;;;20.92;;
19653;SDS011;9975;48.046;7.804;2022-12-18T18:54:15;39.72;;;17.98;;
19653;SDS011;9975;48.046;7.804;2022-12-18T18:56:40;49.47;;;19.63;;
19653;SDS011;9975;48.046;7.804;2022-12-18T18:59:06;41.13;;;19.33;;
19653;SDS011;9975;48.046;7.804;2022-12-18T19:01:32;40.27;;;20.23;;
19653;SDS011;9975;48.046;7.804;2022-12-18T19:03:57;52.93;;;20.90;;
19653;SDS011;9975;48.046;7.804;2022-12-18T19:06:25;45.80;;;19.80;;